Time;durP1;ratioP1;P1;durP2;ratioP2;P2;SDS_P1;SDS_P2;PMS_P1;PMS_P2;Temp;Humidity;BMP_temperature;BMP_pressure;BME280_temperature;BME280_humidity;BME280_pressure;Samples;Min_cycle;Max_cycle;Signal;HPM_P1;HPM_P2
2021/10/11 00:00:18;;;;;;;33.97;30.27;;;12.50;99.90;;;;;;5034685;28;20188;-77
2021/10/11 00:02:44;;;;;;;38.43;31.40;;;12.50;99.90;;;;;;5033806;28;20182;-74
2021/10/11 00:05:13;;;;;;;35.87;31.27;;;12.50;99.90;;;;;;5033471;28;20572;-74
2021/10/11 00:07:41;;;;;;;37.55;32.22;;;12.50;99.90;;;;;;5036601;28;20323;-74
2021/10/11 00:10:08;;;;;;;34.00;29.70;;;12.50;99.90;;;;;;5043209;28;20656;-74
2021/10/11 00:12:34;;;;;;;38.03;31.48;;;12.60;99.90;;;;;;5040848;28;20177;-75
2021/10/11 00:14:59;;;;;;;38.30;31.70;;;12.60;99.90;;;;;;5037227;28;20197;-75
2021/10/11 00:17:25;;;;;;;36.47;30.53;;;12.60;99.90;;;;;;5035497;28;20564;-75
2021/10/11 00:19:51;;;;;;;40.80;33.97;;;12.70;99.90;;;;;;5040158;28;20610;-75
2021/10/11 00:22:20;;;;;;;35.87;30.13;;;12.70;99.90;;;;;;5076105;28;20176;-76
2021/10/11 00:24:46;;;;;;;31.13;27.30;;;12.70;99.90;;;;;;5112347;27;20583;-75
2021/10/11 00:27:13;;;;;;;38.92;30.85;;;12.70;99.90;;;;;;5134507;27;20537;-76
2021/10/11 00:29:39;;;;;;;40.08;30.20;;;12.80;99.90;;;;;;5119757;27;20180;-75
2021/10/11 00:32:07;;;;;;;32.50;26.90;;;12.80;99.90;;;;;;5082517;28;20617;-76
2021/10/11 00:34:34;;;;;;;31.30;27.90;;;12.80;99.90;;;;;;5088959;28;20304;-76
2021/10/11 00:37:00;;;;;;;31.77;28.02;;;12.70;99.90;;;;;;5110383;28;20212;-76
2021/10/11 00:39:26;;;;;;;35.70;29.25;;;12.70;99.90;;;;;;5105973;28;20228;-77
2021/10/11 00:41:52;;;;;;;33.97;28.57;;;12.70;99.90;;;;;;5023826;28;20231;-76
2021/10/11 00:46:56;;;;;;;35.15;29.70;;;12.70;99.90;;;;;;5150287;27;20768;-75
2021/10/11 00:49:22;;;;;;;34.03;28.37;;;12.70;99.90;;;;;;5145569;27;20197;-75
2021/10/11 00:51:47;;;;;;;32.33;27.30;;;12.60;99.90;;;;;;5112937;27;20913;-76
2021/10/11 00:54:14;;;;;;;34.73;28.20;;;12.60;99.90;;;;;;5079906;28;20243;-75
2021/10/11 00:56:40;;;;;;;34.22;29.15;;;12.60;99.90;;;;;;5018205;28;20190;-76
2021/10/11 00:59:07;;;;;;;34.53;27.20;;;12.60;99.90;;;;;;4975968;28;20178;-75
2021/10/11 01:01:32;;;;;;;35.20;27.92;;;12.50;99.90;;;;;;4903305;28;20566;-76
2021/10/11 01:03:59;;;;;;;31.07;26.20;;;12.50;99.90;;;;;;4829991;29;20254;-76
2021/10/11 01:06:25;;;;;;;31.05;24.30;;;12.50;99.90;;;;;;4730093;29;20219;-76
2021/10/11 01:11:07;;;;;;;27.83;22.98;;;12.50;99.90;;;;;;5136949;27;20728;-75
2021/10/11 01:13:33;;;;;;;30.07;24.50;;;12.40;99.90;;;;;;5144637;27;20200;-75
2021/10/11 01:15:59;;;;;;;29.70;25.07;;;12.40;99.90;;;;;;5148578;27;20533;-75
2021/10/11 01:18:25;;;;;;;27.20;24.00;;;12.30;99.90;;;;;;5081403;27;1250543;-75
2021/10/11 01:20:50;;;;;;;27.00;21.73;;;12.30;99.90;;;;;;5002058;28;20209;-74
2021/10/11 01:23:16;;;;;;;26.87;23.47;;;12.30;99.90;;;;;;5011445;28;20175;-74
2021/10/11 01:25:42;;;;;;;26.53;21.97;;;12.20;99.90;;;;;;5028514;28;20564;-75
2021/10/11 01:28:08;;;;;;;29.43;24.73;;;12.20;99.90;;;;;;5011190;28;20568;-75
2021/10/11 01:30:33;;;;;;;27.43;21.20;;;12.20;99.90;;;;;;5010471;28;20209;-75
2021/10/11 01:32:59;;;;;;;28.10;23.27;;;12.10;99.90;;;;;;5028803;28;20676;-76
2021/10/11 01:35:25;;;;;;;28.47;25.40;;;12.10;99.90;;;;;;5028434;28;20577;-75
2021/10/11 01:37:51;;;;;;;28.30;23.60;;;12.10;99.90;;;;;;5028851;28;20565;-75
2021/10/11 01:40:17;;;;;;;29.47;24.37;;;12.20;99.90;;;;;;5028966;28;20182;-75
2021/10/11 01:42:43;;;;;;;27.83;24.55;;;12.20;99.90;;;;;;4994220;28;20254;-75
2021/10/11 01:45:10;;;;;;;28.07;22.53;;;12.20;99.90;;;;;;5010777;28;20169;-75
2021/10/11 01:47:35;;;;;;;26.80;23.88;;;12.30;99.90;;;;;;5010830;28;20644;-75
2021/10/11 01:50:03;;;;;;;31.50;23.17;;;12.30;99.90;;;;;;5028349;28;20200;-75
2021/10/11 01:52:29;;;;;;;27.52;24.02;;;12.40;99.90;;;;;;5027857;28;20174;-75
2021/10/11 01:54:54;;;;;;;27.97;23.83;;;12.40;99.90;;;;;;5027419;28;20174;-75
2021/10/11 01:57:20;;;;;;;29.90;26.23;;;12.50;99.90;;;;;;5028290;28;20197;-75
2021/10/11 01:59:46;;;;;;;27.00;22.20;;;12.50;99.90;;;;;;5010498;28;20619;-76
2021/10/11 02:02:12;;;;;;;26.10;22.37;;;12.70;99.90;;;;;;5027781;28;20178;-75
2021/10/11 02:04:37;;;;;;;29.03;23.67;;;12.70;99.90;;;;;;5010582;28;20538;-75
2021/10/11 02:07:03;;;;;;;24.57;21.80;;;12.70;99.90;;;;;;5010300;28;20584;-75
2021/10/11 02:09:29;;;;;;;31.00;22.48;;;12.80;99.90;;;;;;5010502;28;20288;-75
2021/10/11 02:11:55;;;;;;;28.77;22.83;;;12.80;99.90;;;;;;4996639;28;20277;-75
2021/10/11 02:14:21;;;;;;;26.47;22.57;;;12.90;99.90;;;;;;5028498;28;20948;-75
2021/10/11 02:16:46;;;;;;;24.70;21.03;;;12.90;99.90;;;;;;5010263;28;20185;-75
2021/10/11 02:19:12;;;;;;;24.50;21.00;;;13.10;99.90;;;;;;4995933;28;20195;-75
2021/10/11 02:21:37;;;;;;;25.73;22.00;;;13.10;99.90;;;;;;4997987;28;20285;-75
2021/10/11 02:24:03;;;;;;;25.30;19.97;;;13.10;99.90;;;;;;4995220;28;20182;-75
2021/10/11 02:26:30;;;;;;;22.02;18.77;;;13.20;99.90;;;;;;4996691;28;20582;-75
2021/10/11 02:28:57;;;;;;;23.85;20.83;;;13.30;99.90;;;;;;4994292;28;20206;-75
2021/10/11 02:31:23;;;;;;;23.83;20.65;;;13.30;99.90;;;;;;4993206;28;20691;-75
2021/10/11 02:33:49;;;;;;;25.50;21.33;;;13.30;99.90;;;;;;4994914;28;20259;-75
2021/10/11 02:36:16;;;;;;;28.27;21.98;;;13.30;99.90;;;;;;4993967;28;20303;-75
2021/10/11 02:38:41;;;;;;;27.53;21.80;;;13.20;99.90;;;;;;4993795;28;20175;-75
2021/10/11 02:41:07;;;;;;;24.63;19.90;;;13.20;99.90;;;;;;4992908;28;20617;-75
2021/10/11 02:43:33;;;;;;;22.60;19.43;;;13.10;99.90;;;;;;4994735;28;20578;-75
2021/10/11 02:46:01;;;;;;;21.88;19.40;;;13.10;99.90;;;;;;4985850;28;20258;-74
2021/10/11 02:48:28;;;;;;;22.42;19.75;;;13.20;99.90;;;;;;4995510;28;20187;-75
2021/10/11 02:50:53;;;;;;;21.77;19.47;;;13.20;99.90;;;;;;4996139;28;20215;-75
2021/10/11 02:53:19;;;;;;;25.03;19.93;;;13.20;99.90;;;;;;4995828;28;20199;-75
2021/10/11 02:55:45;;;;;;;23.67;20.57;;;13.20;99.90;;;;;;4993544;28;20171;-75
2021/10/11 02:58:10;;;;;;;25.07;20.50;;;13.30;99.90;;;;;;4995486;28;20182;-75
2021/10/11 03:00:36;;;;;;;25.10;22.10;;;13.30;99.90;;;;;;4977003;28;20203;-74
2021/10/11 03:03:02;;;;;;;24.17;21.10;;;13.30;99.90;;;;;;4993572;28;20248;-75
2021/10/11 03:05:27;;;;;;;26.43;21.27;;;13.30;99.90;;;;;;4994433;28;20186;-75
2021/10/11 03:07:53;;;;;;;28.30;23.40;;;13.40;99.90;;;;;;4994708;28;20175;-75
2021/10/11 03:10:19;;;;;;;27.50;20.77;;;13.40;99.90;;;;;;4993258;28;20206;-75
2021/10/11 03:12:44;;;;;;;24.47;21.80;;;13.40;99.90;;;;;;4992481;28;20510;-75
2021/10/11 03:15:10;;;;;;;28.57;22.27;;;13.40;99.90;;;;;;4994230;28;20193;-75
2021/10/11 03:17:36;;;;;;;24.77;21.10;;;13.40;99.90;;;;;;4992949;28;20534;-75
2021/10/11 03:20:04;;;;;;;29.00;22.20;;;13.40;99.90;;;;;;5007860;28;20224;-75
2021/10/11 03:22:29;;;;;;;25.13;20.85;;;13.40;99.90;;;;;;5012206;28;20173;-75
2021/10/11 03:24:55;;;;;;;21.57;19.20;;;13.30;99.90;;;;;;5014169;28;20253;-75
2021/10/11 03:27:21;;;;;;;23.40;20.40;;;13.30;99.90;;;;;;5013321;28;20543;-75
2021/10/11 03:29:47;;;;;;;25.60;22.40;;;13.30;99.90;;;;;;5012781;28;20288;-75
2021/10/11 03:32:12;;;;;;;24.60;21.93;;;13.30;99.90;;;;;;5012457;28;20163;-75
2021/10/11 03:34:38;;;;;;;28.90;25.00;;;13.30;99.90;;;;;;5011686;28;21139;-75
2021/10/11 03:37:04;;;;;;;29.67;24.20;;;13.30;99.90;;;;;;5012120;28;20528;-75
2021/10/11 03:39:30;;;;;;;26.77;23.90;;;13.30;99.90;;;;;;5011941;28;20205;-75
2021/10/11 03:41:55;;;;;;;27.97;24.97;;;13.30;99.90;;;;;;5013042;28;20194;-75
2021/10/11 03:44:21;;;;;;;27.80;23.13;;;13.30;99.90;;;;;;5013110;28;20178;-75
2021/10/11 03:46:47;;;;;;;27.13;24.20;;;13.30;99.90;;;;;;5011892;28;20532;-75
2021/10/11 03:49:12;;;;;;;30.70;25.37;;;13.40;99.90;;;;;;5012786;28;20608;-75
2021/10/11 03:51:38;;;;;;;31.60;25.87;;;13.40;99.90;;;;;;5011523;28;20194;-74
2021/10/11 03:54:04;;;;;;;30.87;26.70;;;13.40;99.90;;;;;;5012947;28;20244;-75
2021/10/11 03:56:30;;;;;;;32.85;27.65;;;13.40;99.90;;;;;;5011772;28;20525;-74
2021/10/11 03:58:56;;;;;;;30.27;24.80;;;13.40;99.90;;;;;;5012722;28;20170;-75
2021/10/11 04:01:21;;;;;;;30.70;27.27;;;13.40;99.90;;;;;;5012400;28;20608;-75
2021/10/11 04:03:48;;;;;;;31.93;26.70;;;13.40;99.90;;;;;;5011582;28;20167;-75
2021/10/11 04:06:14;;;;;;;32.95;27.92;;;13.50;99.90;;;;;;5012765;28;20170;-75
2021/10/11 04:08:41;;;;;;;32.90;26.60;;;13.50;99.90;;;;;;5011675;28;20181;-75
2021/10/11 04:11:25;;;;;;;39.95;30.50;;;13.50;99.90;;;;;;5012053;28;20202;-75
2021/10/11 04:13:52;;;;;;;37.33;30.20;;;13.50;99.90;;;;;;5012752;28;20199;-75
2021/10/11 04:16:18;;;;;;;32.10;27.13;;;13.50;99.90;;;;;;5011216;28;20224;-75
2021/10/11 04:18:44;;;;;;;25.08;22.30;;;13.40;99.90;;;;;;5019025;28;20622;-75
2021/10/11 04:21:10;;;;;;;32.93;27.73;;;13.50;99.90;;;;;;5030397;28;20237;-74
2021/10/11 04:23:36;;;;;;;29.13;25.10;;;13.50;99.90;;;;;;5047829;28;20572;-74
2021/10/11 04:26:02;;;;;;;38.42;29.15;;;13.50;99.90;;;;;;5031052;28;20583;-74
2021/10/11 04:28:28;;;;;;;34.42;28.23;;;13.50;99.90;;;;;;5030818;28;20177;-75
2021/10/11 04:30:54;;;;;;;35.27;31.20;;;13.50;99.90;;;;;;5031572;28;20567;-74
2021/10/11 04:33:21;;;;;;;33.50;29.10;;;13.50;99.90;;;;;;5031855;28;20906;-75
2021/10/11 04:35:47;;;;;;;35.97;29.90;;;13.50;99.90;;;;;;5030810;28;20496;-75
2021/10/11 04:38:13;;;;;;;36.35;28.48;;;13.50;99.90;;;;;;5030669;28;20188;-75
2021/10/11 04:40:38;;;;;;;34.20;30.47;;;13.50;99.90;;;;;;5030726;28;20198;-75
2021/10/11 04:43:04;;;;;;;36.23;29.63;;;13.40;99.90;;;;;;5031822;28;20170;-75
2021/10/11 04:45:31;;;;;;;36.67;29.43;;;13.40;99.90;;;;;;5030501;28;20177;-75
2021/10/11 04:48:02;;;;;;;31.73;27.30;;;13.30;99.90;;;;;;5013966;28;20585;-74
2021/10/11 04:50:29;;;;;;;35.22;27.15;;;13.30;99.90;;;;;;5031733;28;20212;-74
2021/10/11 04:52:56;;;;;;;38.92;31.85;;;13.20;99.90;;;;;;5031406;28;20309;-75
2021/10/11 04:55:22;;;;;;;38.15;31.15;;;13.20;99.90;;;;;;5030601;28;20226;-75
2021/10/11 04:57:48;;;;;;;29.50;26.07;;;13.20;99.90;;;;;;5030411;28;20256;-75
2021/10/11 05:00:14;;;;;;;35.57;31.63;;;13.20;99.90;;;;;;5046738;28;20596;-75
2021/10/11 05:02:40;;;;;;;36.28;29.88;;;13.20;99.90;;;;;;5013689;28;20181;-75
2021/10/11 05:05:06;;;;;;;35.25;28.15;;;13.20;99.90;;;;;;5030100;28;20178;-75
2021/10/11 05:07:32;;;;;;;37.40;31.40;;;13.30;99.90;;;;;;5030438;28;20580;-75
2021/10/11 05:09:58;;;;;;;35.20;28.37;;;13.30;99.90;;;;;;5031030;28;20296;-74
2021/10/11 05:12:23;;;;;;;34.73;28.60;;;13.30;99.90;;;;;;5031276;28;20165;-75
2021/10/11 05:14:49;;;;;;;34.80;28.80;;;13.40;99.90;;;;;;5031321;28;20208;-74
2021/10/11 05:17:15;;;;;;;38.70;28.97;;;13.40;99.90;;;;;;5031764;28;20165;-75
2021/10/11 05:19:40;;;;;;;39.53;31.10;;;13.40;99.90;;;;;;5043598;28;20668;-75
2021/10/11 05:22:06;;;;;;;33.90;29.17;;;13.40;99.90;;;;;;5051476;28;20660;-75
2021/10/11 05:24:32;;;;;;;39.37;30.50;;;13.50;99.90;;;;;;5051311;28;20222;-74
2021/10/11 05:26:58;;;;;;;39.60;31.30;;;13.50;99.90;;;;;;5033379;28;20177;-74
2021/10/11 05:29:23;;;;;;;36.73;30.23;;;13.50;99.90;;;;;;5033011;28;20204;-75
2021/10/11 05:31:51;;;;;;;35.73;29.57;;;13.50;99.90;;;;;;5032899;28;20734;-75
2021/10/11 05:34:17;;;;;;;29.88;25.85;;;13.50;99.90;;;;;;5051564;28;20165;-75
2021/10/11 05:36:43;;;;;;;33.63;27.10;;;13.60;99.90;;;;;;5050931;28;20166;-74
2021/10/11 05:39:09;;;;;;;29.58;25.08;;;13.60;99.90;;;;;;5033494;28;20525;-74
2021/10/11 05:41:35;;;;;;;37.03;28.63;;;13.60;99.90;;;;;;5050372;28;20230;-74
2021/10/11 05:44:01;;;;;;;34.60;29.77;;;13.60;99.90;;;;;;5051030;28;20551;-74
2021/10/11 05:46:26;;;;;;;35.30;30.33;;;13.60;99.90;;;;;;5032184;28;20230;-74
2021/10/11 05:48:52;;;;;;;33.00;27.77;;;13.60;99.90;;;;;;5050676;28;20161;-74
2021/10/11 05:51:18;;;;;;;36.23;30.20;;;13.60;99.90;;;;;;5050287;28;20184;-74
2021/10/11 05:53:44;;;;;;;37.17;30.38;;;13.70;99.90;;;;;;5032895;28;20165;-77
2021/10/11 05:56:10;;;;;;;33.47;28.10;;;13.70;99.90;;;;;;5033661;28;20176;-77
2021/10/11 05:58:35;;;;;;;30.30;25.57;;;13.70;99.90;;;;;;5020600;28;20173;-76
2021/10/11 06:01:01;;;;;;;31.23;27.87;;;13.70;99.90;;;;;;5054263;28;20188;-77
2021/10/11 06:03:27;;;;;;;25.75;22.95;;;13.70;99.90;;;;;;5054288;28;20169;-77
2021/10/11 06:05:53;;;;;;;27.00;24.10;;;13.70;99.90;;;;;;5003719;28;20560;-77
2021/10/11 06:08:19;;;;;;;26.80;21.57;;;13.80;99.90;;;;;;5020236;28;20596;-77
2021/10/11 06:10:45;;;;;;;31.63;26.63;;;13.80;99.90;;;;;;5019319;28;20204;-76
2021/10/11 06:13:11;;;;;;;27.88;22.50;;;13.80;99.90;;;;;;5003529;28;20296;-76
2021/10/11 06:15:37;;;;;;;26.45;23.15;;;13.90;99.90;;;;;;5018671;28;20176;-76
2021/10/11 06:18:03;;;;;;;32.27;25.50;;;13.90;99.90;;;;;;5018999;28;20653;-76
2021/10/11 06:20:29;;;;;;;31.83;25.93;;;13.90;99.90;;;;;;5035473;28;20698;-76
2021/10/11 06:22:55;;;;;;;30.60;27.00;;;13.90;99.90;;;;;;5035875;28;20649;-76
2021/10/11 06:25:21;;;;;;;36.83;28.53;;;13.90;99.90;;;;;;5053654;28;20634;-76
2021/10/11 06:27:48;;;;;;;34.15;28.23;;;14.00;99.90;;;;;;5016257;28;20679;-76
2021/10/11 06:30:13;;;;;;;35.17;28.08;;;14.00;99.90;;;;;;5053790;28;20250;-75
2021/10/11 06:32:40;;;;;;;34.73;27.70;;;14.00;99.90;;;;;;5016622;28;20169;-74
2021/10/11 06:35:06;;;;;;;32.42;27.33;;;14.00;99.90;;;;;;5035902;28;20587;-75
2021/10/11 06:37:32;;;;;;;59.28;40.40;;;14.10;99.90;;;;;;5051992;28;20185;-76
2021/10/11 06:39:58;;;;;;;38.10;29.90;;;14.10;99.90;;;;;;5035458;28;20198;-75
2021/10/11 06:42:24;;;;;;;35.20;29.23;;;14.10;99.90;;;;;;5052743;28;20244;-75
2021/10/11 06:44:50;;;;;;;29.67;24.20;;;14.20;99.90;;;;;;5035147;28;20176;-75
2021/10/11 06:47:15;;;;;;;32.63;26.20;;;14.20;99.90;;;;;;5035560;28;21175;-74
2021/10/11 06:49:42;;;;;;;29.60;23.70;;;14.20;99.90;;;;;;5026801;28;20681;-75
2021/10/11 06:52:08;;;;;;;35.17;27.08;;;14.30;99.90;;;;;;5015349;28;20185;-77
2021/10/11 06:54:34;;;;;;;31.73;25.33;;;14.30;99.90;;;;;;5032032;28;20526;-75
2021/10/11 06:57:00;;;;;;;33.97;26.80;;;14.30;99.90;;;;;;5031935;28;20170;-75
2021/10/11 06:59:26;;;;;;;33.75;26.73;;;14.40;99.90;;;;;;5031590;28;20192;-76
2021/10/11 07:01:52;;;;;;;29.70;26.57;;;14.40;99.90;;;;;;5031365;28;20225;-76
2021/10/11 07:04:17;;;;;;;35.00;26.10;;;14.50;99.90;;;;;;5032933;28;20169;-76
2021/10/11 07:06:43;;;;;;;32.17;26.00;;;14.50;99.90;;;;;;5022857;28;20524;-75
2021/10/11 07:09:09;;;;;;;28.20;22.87;;;14.50;99.90;;;;;;5051365;28;20181;-75
2021/10/11 07:11:35;;;;;;;27.80;22.63;;;14.60;99.90;;;;;;5017890;28;20227;-76
2021/10/11 07:14:00;;;;;;;29.73;22.60;;;14.60;99.90;;;;;;5054739;28;20261;-75
2021/10/11 07:16:26;;;;;;;26.00;22.15;;;14.70;99.90;;;;;;5052170;28;20220;-75
2021/10/11 07:18:52;;;;;;;30.87;23.20;;;14.80;99.90;;;;;;5036750;28;20551;-76
2021/10/11 07:21:18;;;;;;;27.10;22.53;;;14.80;99.90;;;;;;5052097;28;20244;-75
2021/10/11 07:23:43;;;;;;;25.93;21.47;;;14.90;99.90;;;;;;5052130;28;20332;-76
2021/10/11 07:26:09;;;;;;;28.97;20.97;;;15.00;99.90;;;;;;5050906;28;20184;-75
2021/10/11 07:28:36;;;;;;;23.10;20.23;;;15.10;99.90;;;;;;5052328;28;20181;-75
2021/10/11 07:31:02;;;;;;;24.83;19.67;;;15.10;99.90;;;;;;5084011;28;20246;-75
2021/10/11 07:33:28;;;;;;;26.20;20.30;;;15.20;99.90;;;;;;5034240;28;20583;-76
2021/10/11 07:35:54;;;;;;;24.17;18.30;;;15.30;99.90;;;;;;5052621;28;20563;-76
2021/10/11 07:38:20;;;;;;;20.80;16.63;;;15.40;99.90;;;;;;5051459;28;20506;-76
2021/10/11 07:40:47;;;;;;;20.43;16.43;;;15.40;99.90;;;;;;5086153;28;20656;-76
2021/10/11 07:43:13;;;;;;;20.03;14.70;;;15.50;99.90;;;;;;5067963;28;20575;-76
2021/10/11 07:45:39;;;;;;;18.63;15.00;;;15.60;99.90;;;;;;5067524;28;20582;-76
2021/10/11 07:48:04;;;;;;;17.47;13.60;;;15.60;99.90;;;;;;5052154;28;20168;-76
2021/10/11 07:50:30;;;;;;;13.73;12.23;;;15.70;99.90;;;;;;5067524;28;20205;-75
2021/10/11 07:52:56;;;;;;;15.97;12.30;;;15.80;99.90;;;;;;5051404;28;20161;-76
2021/10/11 07:55:22;;;;;;;16.63;12.20;;;15.90;99.90;;;;;;5052738;28;20584;-76
2021/10/11 07:57:48;;;;;;;16.47;10.73;;;16.10;99.90;;;;;;5057080;28;20169;-76
2021/10/11 08:00:17;;;;;;;13.07;11.40;;;16.20;99.90;;;;;;5052628;28;20615;-75
2021/10/11 08:02:43;;;;;;;13.60;8.43;;;16.40;99.90;;;;;;5049942;28;20611;-75
2021/10/11 08:05:13;;;;;;;15.17;7.90;;;16.60;99.90;;;;;;5051985;28;20606;-75
2021/10/11 08:07:41;;;;;;;10.10;7.40;;;16.80;99.90;;;;;;5051190;28;20599;-75
2021/10/11 08:10:08;;;;;;;11.53;7.60;;;16.90;99.90;;;;;;5051690;28;20623;-76
2021/10/11 08:12:34;;;;;;;12.77;7.00;;;17.10;99.90;;;;;;5051349;28;20618;-75
2021/10/11 08:14:59;;;;;;;7.97;6.50;;;17.30;99.90;;;;;;5051465;28;20639;-75
2021/10/11 08:17:25;;;;;;;11.17;6.73;;;17.60;99.90;;;;;;5050899;28;20173;-76
2021/10/11 08:19:51;;;;;;;7.57;5.00;;;17.80;99.90;;;;;;5051491;28;20216;-81
2021/10/11 08:22:20;;;;;;;8.80;5.30;;;17.90;99.90;;;;;;5050135;28;20580;-80
2021/10/11 08:24:46;;;;;;;9.33;5.17;;;18.10;99.90;;;;;;5033483;28;20169;-80
2021/10/11 08:27:16;;;;;;;6.80;4.43;;;18.40;99.90;;;;;;5051776;28;20575;-79
2021/10/11 08:29:43;;;;;;;9.07;4.30;;;18.60;99.90;;;;;;5034738;28;20710;-80
2021/10/11 08:32:09;;;;;;;8.03;3.93;;;18.70;99.90;;;;;;5017045;28;20583;-80
2021/10/11 08:34:35;;;;;;;4.53;3.00;;;18.90;99.90;;;;;;5051709;28;20576;-80
2021/10/11 08:37:00;;;;;;;4.90;3.43;;;19.00;99.90;;;;;;5033912;28;20242;-81
2021/10/11 08:39:26;;;;;;;6.03;2.93;;;19.20;99.90;;;;;;5033520;28;20161;-80
2021/10/11 08:41:52;;;;;;;5.63;3.00;;;19.60;99.90;;;;;;5050867;28;20844;-80
2021/10/11 08:44:18;;;;;;;5.70;2.60;;;20.10;99.90;;;;;;5051726;28;20199;-80
2021/10/11 08:46:46;;;;;;;6.23;2.37;;;20.60;99.90;;;;;;5051273;28;20598;-81
2021/10/11 08:49:12;;;;;;;7.40;2.60;;;21.10;99.90;;;;;;5050991;28;20169;-80
2021/10/11 08:51:38;;;;;;;7.03;2.37;;;21.70;99.90;;;;;;5016502;28;20619;-81
2021/10/11 08:54:03;;;;;;;2.83;1.30;;;22.10;99.90;;;;;;5051655;28;20567;-79
2021/10/11 08:56:29;;;;;;;5.37;1.80;;;22.60;99.90;;;;;;5032926;28;20672;-79
2021/10/11 08:58:55;;;;;;;3.80;1.97;;;22.90;99.90;;;;;;5051348;28;20165;-80
2021/10/11 09:01:22;;;;;;;6.27;1.50;;;23.10;99.90;;;;;;5050638;28;20243;-80
2021/10/11 09:03:48;;;;;;;4.13;2.07;;;23.20;99.90;;;;;;5051794;28;20176;-79
2021/10/11 09:06:14;;;;;;;9.43;1.40;;;23.10;99.90;;;;;;5050758;28;20572;-79
2021/10/11 09:08:40;;;;;;;4.37;1.37;;;23.00;99.90;;;;;;5032961;28;20176;-79
2021/10/11 09:11:13;;;;;;;4.23;1.77;;;22.80;99.90;;;;;;5032591;28;20288;-79
2021/10/11 09:13:45;;;;;;;4.40;1.73;;;22.70;99.90;;;;;;5033702;28;20629;-78
2021/10/11 09:17:03;;;;;;;7.27;1.60;;;22.70;99.90;;;;;;5033302;28;20678;-79
2021/10/11 09:19:17;;;;;;;5.53;1.70;;;22.50;99.90;;;;;;5019436;28;20603;-78
2021/10/11 09:21:43;;;;;;;3.90;2.00;;;22.40;99.90;;;;;;5052066;28;20626;-78
2021/10/11 09:24:11;;;;;;;4.47;1.57;;;22.20;99.90;;;;;;5051280;28;20959;-78
2021/10/11 09:26:48;;;;;;;4.60;2.70;;;22.00;99.90;;;;;;5050367;28;20576;-78
2021/10/11 09:29:26;;;;;;;3.70;1.27;;;21.90;99.90;;;;;;5049938;28;20591;-78
2021/10/11 09:31:52;;;;;;;3.47;1.27;;;21.70;99.90;;;;;;5058611;28;20650;-79
2021/10/11 09:34:20;;;;;;;2.50;0.90;;;21.50;99.90;;;;;;5056994;28;20600;-78
2021/10/11 09:37:15;;;;;;;5.83;1.50;;;21.30;99.90;;;;;;5055653;28;21243;-78
2021/10/11 09:39:42;;;;;;;3.57;1.43;;;21.00;99.90;;;;;;5041563;28;20583;-78
2021/10/11 09:42:16;;;;;;;3.70;1.17;;;20.90;99.90;;;;;;5057255;28;20575;-79
2021/10/11 09:44:57;;;;;;;4.60;1.20;;;20.70;99.90;;;;;;5064843;28;20594;-79
2021/10/11 09:47:47;;;;;;;2.17;1.17;;;20.50;99.90;;;;;;5073393;28;20575;-79
2021/10/11 09:50:14;;;;;;;7.83;1.37;;;20.40;99.90;;;;;;5058957;28;20666;-78
2021/10/11 09:52:41;;;;;;;3.97;1.77;;;20.40;99.90;;;;;;5052920;28;20571;-76
2021/10/11 09:55:09;;;;;;;8.60;1.13;;;20.40;99.90;;;;;;5054611;28;20559;-77
2021/10/11 09:57:35;;;;;;;3.43;1.40;;;20.40;99.90;;;;;;5054182;28;20568;-76
2021/10/11 10:00:12;;;;;;;3.87;1.50;;;20.40;99.90;;;;;;5054380;28;20615;-77
2021/10/11 10:02:41;;;;;;;4.07;1.10;;;20.40;99.90;;;;;;5052801;28;20581;-77
2021/10/11 10:05:18;;;;;;;4.03;1.00;;;20.40;99.90;;;;;;5053388;28;20587;-78
2021/10/11 10:07:50;;;;;;;4.60;0.93;;;20.40;99.90;;;;;;5054055;28;20579;-77
2021/10/11 10:10:20;;;;;;;4.97;0.90;;;20.50;99.90;;;;;;5054970;28;20641;-79
2021/10/11 10:12:48;;;;;;;5.30;1.03;;;20.50;99.90;;;;;;5055162;28;20574;-79
2021/10/11 10:15:32;;;;;;;5.60;1.00;;;20.60;99.90;;;;;;5053079;28;20572;-78
2021/10/11 10:18:03;;;;;;;5.50;1.17;;;20.70;99.90;;;;;;5055368;28;20563;-78
2021/10/11 10:20:30;;;;;;;5.57;1.40;;;20.90;99.90;;;;;;5055134;28;21012;-78
2021/10/11 10:22:56;;;;;;;3.53;1.10;;;20.90;99.90;;;;;;5036822;28;20666;-79
2021/10/11 10:25:22;;;;;;;4.53;0.90;;;20.90;99.90;;;;;;5037315;28;20927;-78
2021/10/11 10:27:51;;;;;;;3.93;1.10;;;20.90;99.90;;;;;;5054354;28;20564;-78
2021/10/11 10:30:23;;;;;;;5.87;0.90;;;20.90;99.90;;;;;;5054113;28;21230;-78
2021/10/11 10:33:00;;;;;;;2.50;0.80;;;20.80;99.90;;;;;;5035669;28;20567;-79
2021/10/11 10:35:30;;;;;;;3.97;1.00;;;20.70;99.90;;;;;;5053815;28;20955;-78
2021/10/11 10:37:57;;;;;;;5.63;1.20;;;20.70;99.90;;;;;;5054440;28;20571;-78
2021/10/11 10:40:32;;;;;;;4.77;0.90;;;20.60;99.90;;;;;;5053882;28;20598;-76
2021/10/11 10:43:09;;;;;;;6.40;1.67;;;20.60;99.90;;;;;;5053229;28;20567;-77
2021/10/11 10:45:37;;;;;;;4.57;1.10;;;20.70;99.90;;;;;;5035751;28;20583;-76
2021/10/11 10:48:22;;;;;;;3.23;1.00;;;20.80;99.90;;;;;;5053705;28;20567;-76
2021/10/11 10:50:48;;;;;;;2.77;0.80;;;20.80;99.90;;;;;;5052931;28;21047;-77
2021/10/11 10:53:14;;;;;;;3.87;1.00;;;20.90;99.90;;;;;;5053680;28;21118;-77
2021/10/11 10:55:41;;;;;;;4.80;1.30;;;20.90;99.90;;;;;;5054600;28;20674;-76
2021/10/11 10:58:10;;;;;;;11.93;1.93;;;20.90;99.90;;;;;;5057164;28;20172;-77
2021/10/11 11:00:38;;;;;;;5.50;1.37;;;20.90;99.90;;;;;;5039125;28;20602;-78
2021/10/11 11:03:09;;;;;;;3.47;1.03;;;20.80;99.90;;;;;;5064508;28;20584;-78
2021/10/11 11:05:36;;;;;;;2.50;0.80;;;20.70;99.90;;;;;;5053953;28;20955;-78
2021/10/11 11:08:01;;;;;;;3.93;1.30;;;20.60;99.90;;;;;;5036542;28;20629;-78
2021/10/11 11:10:31;;;;;;;3.80;1.07;;;20.50;99.90;;;;;;5054938;28;20650;-79
2021/10/11 11:12:57;;;;;;;2.90;0.90;;;20.40;99.90;;;;;;5035143;28;20180;-78
2021/10/11 11:15:32;;;;;;;3.27;0.80;;;20.40;99.90;;;;;;5058430;28;20560;-78
2021/10/11 11:18:08;;;;;;;3.30;1.03;;;20.40;99.90;;;;;;5034602;22;20298;-78
2021/10/11 11:20:38;;;;;;;2.70;0.70;;;20.30;99.90;;;;;;5009354;28;20954;-79
2021/10/11 11:23:06;;;;;;;4.87;1.50;;;20.30;99.90;;;;;;5011895;28;20672;-79
2021/10/11 11:25:34;;;;;;;5.40;1.20;;;20.30;99.90;;;;;;4999305;28;21148;-79
2021/10/11 11:28:03;;;;;;;7.80;1.63;;;20.30;99.90;;;;;;4993419;28;20652;-79
2021/10/11 11:30:29;;;;;;;4.17;1.00;;;20.30;99.90;;;;;;4992158;28;20633;-79
2021/10/11 11:33:09;;;;;;;4.30;2.03;;;20.30;99.90;;;;;;4992284;28;20570;-78
2021/10/11 11:35:37;;;;;;;3.63;0.80;;;20.40;99.90;;;;;;4992161;28;20578;-79
2021/10/11 11:38:08;;;;;;;3.77;1.00;;;20.30;99.90;;;;;;4993369;28;20594;-78
2021/10/11 11:40:36;;;;;;;3.67;0.80;;;20.40;99.90;;;;;;4991974;28;20589;-79
2021/10/11 11:43:05;;;;;;;4.93;1.77;;;20.30;99.90;;;;;;4992240;28;20593;-79
2021/10/11 11:45:44;;;;;;;3.80;0.93;;;20.20;99.90;;;;;;4992697;28;20566;-79
2021/10/11 11:48:24;;;;;;;4.13;0.80;;;20.20;99.90;;;;;;4993733;28;20662;-79
2021/10/11 11:50:53;;;;;;;10.47;1.60;;;20.10;99.90;;;;;;4993313;28;20625;-77
2021/10/11 11:53:21;;;;;;;6.80;1.03;;;20.10;99.90;;;;;;4992903;28;20573;-77
2021/10/11 11:55:50;;;;;;;7.80;2.30;;;20.20;99.90;;;;;;4992654;28;20566;-77
2021/10/11 11:58:27;;;;;;;4.50;1.00;;;20.30;99.90;;;;;;4992936;28;21031;-77
2021/10/11 12:00:58;;;;;;;4.03;0.90;;;20.30;99.90;;;;;;4992528;28;20625;-77
2021/10/11 12:03:26;;;;;;;3.93;1.57;;;20.40;99.90;;;;;;4993157;28;21006;-77
2021/10/11 12:05:58;;;;;;;4.23;1.10;;;20.40;99.90;;;;;;4991305;28;20919;-77
2021/10/11 12:08:25;;;;;;;10.10;2.07;;;20.50;99.90;;;;;;4992817;28;20779;-78
2021/10/11 12:11:04;;;;;;;6.70;1.40;;;20.60;99.90;;;;;;4992559;28;20625;-79
2021/10/11 12:13:40;;;;;;;5.30;1.53;;;20.70;99.90;;;;;;4991395;28;20623;-78
2021/10/11 12:16:09;;;;;;;3.30;1.07;;;20.80;99.90;;;;;;4992536;28;20657;-78
2021/10/11 12:18:42;;;;;;;4.53;1.17;;;20.90;99.90;;;;;;4991259;28;20617;-78
2021/10/11 12:21:22;;;;;;;4.03;1.17;;;21.00;99.90;;;;;;4991327;28;20614;-78
2021/10/11 12:23:49;;;;;;;2.20;1.10;;;21.00;99.90;;;;;;4992413;28;20577;-79
2021/10/11 12:26:15;;;;;;;4.83;1.03;;;21.00;99.90;;;;;;5011901;28;20987;-77
2021/10/11 12:28:53;;;;;;;4.57;1.13;;;20.90;99.90;;;;;;4994690;28;20684;-78
2021/10/11 12:31:37;;;;;;;2.90;0.70;;;20.70;99.90;;;;;;5010325;28;20660;-79
2021/10/11 12:34:09;;;;;;;4.60;0.80;;;20.70;99.90;;;;;;5011909;28;20561;-78
2021/10/11 12:36:52;;;;;;;3.30;1.27;;;20.70;99.90;;;;;;5010642;28;20601;-78
2021/10/11 12:39:20;;;;;;;4.70;1.83;;;20.60;99.90;;;;;;5011484;28;20569;-78